createdAt,value
2019-05-25T00:00:34.187Z,10.40
2019-05-25T00:03:03.574Z,10.40
2019-05-25T00:05:33.003Z,10.50
2019-05-25T00:08:02.460Z,10.50
2019-05-25T00:10:31.919Z,10.50
2019-05-25T00:13:01.359Z,10.50
2019-05-25T00:15:32.605Z,10.50
2019-05-25T00:18:02.055Z,10.50
2019-05-25T00:20:31.662Z,10.50
2019-05-25T00:23:01.132Z,10.50
2019-05-25T00:25:30.515Z,10.50
2019-05-25T00:27:59.927Z,10.40
2019-05-25T00:30:29.437Z,10.40
2019-05-25T00:32:58.860Z,10.40
2019-05-25T00:35:28.393Z,10.30
2019-05-25T00:37:57.787Z,10.30
2019-05-25T00:40:27.239Z,10.30
2019-05-25T00:42:56.670Z,10.40
2019-05-25T00:45:26.142Z,10.40
2019-05-25T00:47:55.546Z,10.40
2019-05-25T00:50:25.011Z,10.40
2019-05-25T00:52:54.999Z,10.40
2019-05-25T00:55:24.384Z,10.40
2019-05-25T00:57:53.850Z,10.40
2019-05-25T01:00:23.342Z,10.40
2019-05-25T01:02:52.801Z,10.40
2019-05-25T01:05:22.243Z,10.50
2019-05-25T01:07:51.692Z,10.50
2019-05-25T01:10:21.119Z,10.40
2019-05-25T01:12:50.559Z,10.40
2019-05-25T01:15:20.428Z,10.40
2019-05-25T01:17:49.774Z,10.40
2019-05-25T01:20:19.480Z,10.40
2019-05-25T01:22:48.951Z,10.30
2019-05-25T01:25:19.590Z,10.30
2019-05-25T01:27:48.991Z,10.30
2019-05-25T01:30:18.702Z,10.30
2019-05-25T01:32:48.095Z,10.30
2019-05-25T01:35:17.661Z,10.20
2019-05-25T01:37:52.255Z,10.30
2019-05-25T01:40:21.713Z,10.30
2019-05-25T01:42:51.231Z,10.30
2019-05-25T01:45:20.733Z,10.30
2019-05-25T01:47:50.162Z,10.30
2019-05-25T01:50:19.635Z,10.30
2019-05-25T01:52:49.086Z,10.30
2019-05-25T01:55:18.523Z,10.30
2019-05-25T01:57:47.948Z,10.30
2019-05-25T02:00:17.698Z,10.40
2019-05-25T02:02:47.121Z,10.40
2019-05-25T02:05:16.655Z,10.40
2019-05-25T02:07:46.183Z,10.40
2019-05-25T02:10:15.599Z,10.40
2019-05-25T02:12:45.089Z,10.40
2019-05-25T02:15:14.541Z,10.40
2019-05-25T02:17:44.046Z,10.40
2019-05-25T02:20:13.587Z,10.50
2019-05-25T02:22:43.071Z,10.50
2019-05-25T02:25:17.977Z,10.50
2019-05-25T02:27:44.105Z,10.50
2019-05-25T02:30:13.914Z,10.60
2019-05-25T02:32:43.379Z,10.50
2019-05-25T02:35:22.519Z,10.60
2019-05-25T02:37:51.959Z,10.60
2019-05-25T02:40:21.361Z,10.60
2019-05-25T02:42:50.795Z,10.60
2019-05-25T02:45:20.218Z,10.60
2019-05-25T02:47:49.716Z,10.60
2019-05-25T02:50:20.034Z,10.60
2019-05-25T02:52:49.447Z,10.60
2019-05-25T02:55:33.091Z,10.60
2019-05-25T02:57:50.063Z,10.60
2019-05-25T03:00:23.931Z,10.60
2019-05-25T03:02:53.431Z,10.60
2019-05-25T03:05:22.894Z,10.60
2019-05-25T03:07:52.688Z,10.60
2019-05-25T03:10:22.135Z,10.60
2019-05-25T03:12:51.942Z,10.60
2019-05-25T03:15:21.356Z,10.60
2019-05-25T03:17:50.820Z,10.60
2019-05-25T03:20:20.256Z,10.60
2019-05-25T03:22:49.689Z,10.60
2019-05-25T03:25:19.119Z,10.70
2019-05-25T03:27:48.630Z,10.70
2019-05-25T03:30:23.919Z,10.70
2019-05-25T03:32:54.280Z,10.70
2019-05-25T03:35:23.697Z,10.70
2019-05-25T03:37:53.109Z,10.70
2019-05-25T03:40:22.856Z,10.80
2019-05-25T03:42:52.278Z,10.70
2019-05-25T03:45:21.692Z,10.80
2019-05-25T03:47:51.179Z,10.80
2019-05-25T03:50:20.613Z,10.80
2019-05-25T03:52:50.043Z,10.80
2019-05-25T03:55:19.477Z,10.90
2019-05-25T03:57:49.535Z,10.90
2019-05-25T04:00:31.572Z,11.00
2019-05-25T04:03:01.021Z,11.00
2019-05-25T04:05:30.524Z,11.00
2019-05-25T04:07:59.960Z,11.10
2019-05-25T04:10:29.670Z,11.10
2019-05-25T04:12:59.069Z,11.10
2019-05-25T04:15:28.482Z,11.20
2019-05-25T04:17:57.940Z,11.10
2019-05-25T04:20:27.325Z,11.20
2019-05-25T04:22:56.752Z,11.20
2019-05-25T04:25:26.214Z,11.20
2019-05-25T04:27:55.654Z,11.20
2019-05-25T04:30:25.092Z,11.20
2019-05-25T04:32:54.568Z,11.30
2019-05-25T04:35:24.027Z,11.30
2019-05-25T04:37:53.495Z,11.30
2019-05-25T04:40:23.319Z,11.30
2019-05-25T04:42:52.843Z,11.40
2019-05-25T04:45:22.374Z,11.40
2019-05-25T04:47:51.803Z,11.40
2019-05-25T04:50:21.242Z,11.50
2019-05-25T04:52:50.770Z,11.50
2019-05-25T04:55:20.214Z,11.50
2019-05-25T04:57:49.615Z,11.50
2019-05-25T05:00:19.077Z,11.50
2019-05-25T05:02:48.589Z,11.50
2019-05-25T05:05:17.991Z,11.60
2019-05-25T05:07:47.443Z,11.60
2019-05-25T05:10:16.967Z,11.60
2019-05-25T05:12:46.433Z,11.60
2019-05-25T05:15:15.903Z,11.60
2019-05-25T05:17:45.414Z,11.60
2019-05-25T05:20:14.935Z,11.60
2019-05-25T05:22:44.361Z,11.60
2019-05-25T05:25:13.952Z,11.60
2019-05-25T05:27:43.386Z,11.60
2019-05-25T05:30:14.659Z,11.60
2019-05-25T05:32:44.098Z,11.60
2019-05-25T05:35:14.135Z,11.70
2019-05-25T05:37:44.799Z,11.70
2019-05-25T05:40:14.423Z,11.70
2019-05-25T05:42:45.781Z,11.80
2019-05-25T05:45:15.528Z,11.80
2019-05-25T05:47:47.287Z,11.90
2019-05-25T05:50:17.041Z,11.90
2019-05-25T05:52:48.619Z,12.00
2019-05-25T05:55:20.983Z,12.10
2019-05-25T05:57:50.400Z,12.10
2019-05-25T06:00:19.947Z,12.10
2019-05-25T06:02:49.545Z,12.20
2019-05-25T06:05:18.971Z,12.30
2019-05-25T06:07:48.457Z,12.40
2019-05-25T06:10:17.962Z,12.40
2019-05-25T06:12:47.383Z,12.40
2019-05-25T06:15:16.946Z,12.50
2019-05-25T06:17:46.383Z,12.50
2019-05-25T06:20:15.829Z,12.50
2019-05-25T06:22:45.860Z,12.50
2019-05-25T06:25:15.267Z,12.50
2019-05-25T06:27:44.691Z,12.60
2019-05-25T06:30:15.252Z,12.60
2019-05-25T06:32:44.701Z,12.60
2019-05-25T06:35:14.635Z,12.70
2019-05-25T06:37:44.108Z,12.80
2019-05-25T06:40:14.303Z,12.90
2019-05-25T06:42:43.751Z,12.90
2019-05-25T06:45:13.318Z,12.90
2019-05-25T06:47:42.731Z,12.90
2019-05-25T06:50:12.454Z,13.00
2019-05-25T06:52:41.903Z,13.00
2019-05-25T06:55:11.546Z,13.10
2019-05-25T06:57:43.536Z,13.20
2019-05-25T07:00:13.904Z,13.30
2019-05-25T07:02:43.407Z,13.40
2019-05-25T07:05:12.941Z,13.40
2019-05-25T07:07:42.287Z,13.50
2019-05-25T07:10:12.017Z,13.50
2019-05-25T07:12:41.443Z,13.50
2019-05-25T07:15:12.070Z,13.60
2019-05-25T07:17:41.510Z,13.70
2019-05-25T07:20:12.970Z,13.70
2019-05-25T07:22:42.409Z,13.80
2019-05-25T07:25:13.423Z,13.90
2019-05-25T07:27:57.872Z,13.90
2019-05-25T07:30:14.603Z,14.00
2019-05-25T07:32:47.223Z,14.00
2019-05-25T07:35:17.577Z,14.10
2019-05-25T07:37:46.994Z,14.10
2019-05-25T07:40:16.541Z,14.10
2019-05-25T07:42:46.003Z,14.20
2019-05-25T07:45:15.775Z,14.20
2019-05-25T07:47:45.194Z,14.30
2019-05-25T07:50:15.007Z,14.40
2019-05-25T07:52:44.472Z,14.50
2019-05-25T07:55:13.895Z,14.50
2019-05-25T07:57:43.346Z,14.50
2019-05-25T08:00:12.959Z,14.50
2019-05-25T08:02:42.406Z,14.50
2019-05-25T08:05:11.927Z,14.60
2019-05-25T08:07:41.334Z,14.70
2019-05-25T08:10:12.665Z,14.80
2019-05-25T08:12:42.130Z,14.90
2019-05-25T08:15:12.545Z,15.00
2019-05-25T08:17:42.018Z,14.90
2019-05-25T08:20:11.434Z,15.00
2019-05-25T08:22:40.828Z,15.10
2019-05-25T08:25:10.580Z,15.20
2019-05-25T08:27:39.986Z,15.30
2019-05-25T08:30:09.788Z,15.40
2019-05-25T08:32:39.267Z,15.40
2019-05-25T08:35:10.464Z,15.40
2019-05-25T08:37:39.887Z,15.40
2019-05-25T08:40:09.490Z,15.40
2019-05-25T08:42:38.926Z,15.50
2019-05-25T08:45:09.666Z,15.50
2019-05-25T08:47:39.077Z,15.40
2019-05-25T08:50:09.092Z,15.50
2019-05-25T08:52:38.749Z,15.40
2019-05-25T08:55:10.326Z,15.50
2019-05-25T08:57:39.731Z,15.60
2019-05-25T09:00:09.841Z,15.50
2019-05-25T09:02:39.245Z,15.50
2019-05-25T09:05:09.127Z,15.50
2019-05-25T09:07:38.642Z,15.40
2019-05-25T09:10:09.144Z,15.50
2019-05-25T09:12:38.544Z,15.60
2019-05-25T09:15:08.058Z,15.60
2019-05-25T09:17:37.463Z,15.70
2019-05-25T09:20:07.266Z,15.80
2019-05-25T09:22:36.707Z,15.90
2019-05-25T09:25:06.983Z,16.00
2019-05-25T09:27:36.378Z,16.10
2019-05-25T09:30:06.351Z,16.10
2019-05-25T09:32:35.835Z,16.30
2019-05-25T09:35:05.468Z,16.40
2019-05-25T09:37:34.876Z,16.50
2019-05-25T09:40:04.862Z,16.70
2019-05-25T09:42:34.278Z,16.80
2019-05-25T09:45:03.732Z,16.80
2019-05-25T09:47:33.143Z,16.80
2019-05-25T09:50:02.592Z,16.80
2019-05-25T09:52:32.007Z,16.80
2019-05-25T09:55:01.405Z,16.80
2019-05-25T09:57:30.871Z,16.70
2019-05-25T10:00:00.230Z,16.60
2019-05-25T10:02:29.622Z,16.50
2019-05-25T10:04:59.048Z,16.60
2019-05-25T10:07:28.477Z,16.70
2019-05-25T10:09:58.066Z,16.90
2019-05-25T10:12:30.179Z,17.00
2019-05-25T10:14:59.594Z,17.10
2019-05-25T10:17:29.071Z,17.20
2019-05-25T10:19:58.506Z,17.20
2019-05-25T10:22:27.894Z,17.20
2019-05-25T10:24:57.334Z,17.30
2019-05-25T10:27:26.746Z,17.30
2019-05-25T10:29:56.165Z,17.30
2019-05-25T10:32:25.602Z,17.40
2019-05-25T10:34:55.010Z,17.40
2019-05-25T10:37:24.434Z,17.50
2019-05-25T10:39:53.880Z,17.60
2019-05-25T10:42:23.290Z,17.90
2019-05-25T10:44:52.687Z,18.20
2019-05-25T10:47:22.116Z,18.40
2019-05-25T10:49:51.519Z,18.50
2019-05-25T10:52:20.950Z,18.50
2019-05-25T10:54:50.386Z,18.40
2019-05-25T10:57:19.831Z,18.30
2019-05-25T10:59:53.061Z,18.20
2019-05-25T11:02:20.318Z,18.20
2019-05-25T11:04:49.753Z,18.20
2019-05-25T11:07:19.152Z,18.10
2019-05-25T11:09:48.646Z,18.10
2019-05-25T11:12:18.063Z,18.10
2019-05-25T11:14:47.481Z,18.00
2019-05-25T11:17:16.907Z,18.00
2019-05-25T11:19:46.331Z,18.00
2019-05-25T11:22:17.092Z,18.00
2019-05-25T11:24:46.519Z,18.10
2019-05-25T11:27:15.915Z,18.30
2019-05-25T11:29:45.718Z,18.50
2019-05-25T11:32:15.158Z,18.70
2019-05-25T11:34:44.567Z,18.80
2019-05-25T11:37:15.722Z,18.90
2019-05-25T11:39:45.237Z,18.90
2019-05-25T11:42:14.711Z,19.00
2019-05-25T11:44:44.127Z,19.10
2019-05-25T11:47:13.531Z,19.30
2019-05-25T11:49:42.945Z,19.40
2019-05-25T11:52:12.372Z,19.50
2019-05-25T11:54:41.772Z,19.50
2019-05-25T11:57:11.196Z,19.60
2019-05-25T11:59:40.596Z,19.60
2019-05-25T12:02:09.989Z,19.70
2019-05-25T12:04:39.511Z,19.80
2019-05-25T12:07:08.985Z,19.80
2019-05-25T12:09:38.408Z,19.90
2019-05-25T12:12:07.825Z,19.90
2019-05-25T12:14:37.227Z,19.90
2019-05-25T12:17:06.627Z,19.90
2019-05-25T12:19:36.079Z,19.90
2019-05-25T12:22:05.683Z,20.10
2019-05-25T12:24:35.094Z,20.20
2019-05-25T12:27:04.511Z,20.10
2019-05-25T12:29:33.951Z,19.90
2019-05-25T12:32:04.429Z,19.70
2019-05-25T12:34:34.051Z,19.60
2019-05-25T12:37:03.467Z,19.60
2019-05-25T12:39:32.974Z,19.70
2019-05-25T12:42:02.386Z,19.60
2019-05-25T12:44:34.398Z,19.50
2019-05-25T12:47:02.867Z,19.40
2019-05-25T12:49:49.334Z,19.40
2019-05-25T12:52:03.309Z,19.40
2019-05-25T12:54:32.690Z,19.50
2019-05-25T12:57:02.908Z,19.60
2019-05-25T12:59:32.350Z,19.80
2019-05-25T13:02:01.743Z,19.80
2019-05-25T13:04:31.153Z,19.90
2019-05-25T13:07:00.549Z,19.90
2019-05-25T13:09:29.956Z,19.80
2019-05-25T13:11:59.386Z,19.70
2019-05-25T13:14:28.758Z,19.60
2019-05-25T13:16:58.139Z,19.60
2019-05-25T13:19:27.546Z,19.60
2019-05-25T13:21:56.939Z,19.50
2019-05-25T13:24:26.333Z,19.70
2019-05-25T13:26:55.744Z,19.90
2019-05-25T13:29:25.200Z,20.10
2019-05-25T13:31:54.680Z,20.20
2019-05-25T13:34:24.047Z,20.30
2019-05-25T13:36:53.440Z,20.30
2019-05-25T13:39:22.920Z,20.30
2019-05-25T13:41:52.397Z,20.30
2019-05-25T13:44:21.806Z,20.20
2019-05-25T13:46:51.267Z,20.10
2019-05-25T13:49:20.674Z,20.00
2019-05-25T13:51:50.189Z,19.90
2019-05-25T13:54:19.677Z,19.90
2019-05-25T13:56:49.105Z,19.80
2019-05-25T13:59:18.666Z,19.70
2019-05-25T14:01:48.054Z,19.70
2019-05-25T14:04:17.638Z,19.80
2019-05-25T14:06:47.053Z,19.90
2019-05-25T14:09:16.504Z,19.90
2019-05-25T14:11:45.927Z,19.80
2019-05-25T14:14:15.372Z,19.60
2019-05-25T14:16:45.027Z,19.40
2019-05-25T14:19:14.487Z,19.10
2019-05-25T14:21:43.913Z,19.00
2019-05-25T14:24:13.366Z,19.10
2019-05-25T14:26:42.768Z,19.30
2019-05-25T14:29:13.603Z,19.40
2019-05-25T14:31:46.653Z,19.50
2019-05-25T14:34:16.022Z,19.70
2019-05-25T14:36:45.487Z,19.80
2019-05-25T14:39:14.940Z,19.80
2019-05-25T14:41:44.334Z,19.80
2019-05-25T14:44:13.938Z,19.90
2019-05-25T14:46:43.342Z,20.10
2019-05-25T14:49:12.942Z,20.30
2019-05-25T14:51:42.338Z,20.50
2019-05-25T14:54:11.753Z,20.60
2019-05-25T14:56:41.144Z,20.60
2019-05-25T14:59:10.654Z,20.60
2019-05-25T15:01:40.120Z,20.50
2019-05-25T15:04:10.775Z,20.50
2019-05-25T15:06:40.231Z,20.40
2019-05-25T15:09:09.636Z,20.20
2019-05-25T15:11:39.065Z,20.00
2019-05-25T15:14:08.611Z,19.90
2019-05-25T15:16:38.093Z,19.90
2019-05-25T15:19:07.505Z,20.10
2019-05-25T15:21:37.065Z,20.20
2019-05-25T15:24:06.562Z,20.30
2019-05-25T15:26:35.894Z,20.30
2019-05-25T15:29:05.335Z,20.20
2019-05-25T15:31:34.768Z,19.90
2019-05-25T15:34:04.286Z,19.80
2019-05-25T15:36:33.735Z,19.60
2019-05-25T15:39:05.232Z,19.40
2019-05-25T15:41:34.870Z,19.50
2019-05-25T15:44:06.580Z,19.50
2019-05-25T15:46:36.139Z,19.50
2019-05-25T15:49:05.547Z,19.60
2019-05-25T15:51:35.041Z,19.60
2019-05-25T15:54:04.526Z,19.50
2019-05-25T15:56:33.963Z,19.80
2019-05-25T15:59:03.439Z,20.30
2019-05-25T16:01:33.187Z,21.10
2019-05-25T16:04:02.754Z,21.90
2019-05-25T16:06:32.282Z,21.90
2019-05-25T16:09:01.900Z,21.50
2019-05-25T16:11:32.294Z,21.00
2019-05-25T16:14:01.809Z,20.90
2019-05-25T16:16:31.279Z,21.30
2019-05-25T16:19:00.727Z,21.60
2019-05-25T16:21:30.139Z,22.20
2019-05-25T16:23:59.536Z,23.20
2019-05-25T16:26:43.091Z,23.40
2019-05-25T16:28:59.984Z,22.70
2019-05-25T16:31:29.739Z,22.20
2019-05-25T16:33:59.279Z,22.20
2019-05-25T16:36:28.815Z,23.00
2019-05-25T16:38:58.353Z,23.50
2019-05-25T16:41:27.815Z,23.10
2019-05-25T16:43:57.283Z,22.60
2019-05-25T16:46:26.719Z,22.80
2019-05-25T16:48:56.231Z,22.70
2019-05-25T16:51:25.852Z,22.20
2019-05-25T16:53:55.304Z,21.60
2019-05-25T16:56:25.407Z,21.20
2019-05-25T16:58:54.823Z,21.30
2019-05-25T17:01:24.271Z,21.70
2019-05-25T17:03:53.694Z,22.70
2019-05-25T17:06:23.097Z,23.50
2019-05-25T17:08:56.072Z,23.80
2019-05-25T17:11:23.538Z,23.80
2019-05-25T17:13:52.979Z,24.10
2019-05-25T17:16:22.375Z,24.40
2019-05-25T17:18:51.763Z,24.70
2019-05-25T17:21:21.262Z,24.90
2019-05-25T17:23:50.762Z,25.00
2019-05-25T17:26:20.304Z,24.80
2019-05-25T17:28:49.920Z,24.20
2019-05-25T17:31:19.674Z,23.50
2019-05-25T17:33:49.299Z,22.50
2019-05-25T17:36:18.886Z,21.70
2019-05-25T17:38:48.439Z,20.90
2019-05-25T17:41:17.923Z,20.10
2019-05-25T17:43:47.909Z,19.70
2019-05-25T17:46:17.514Z,19.20
2019-05-25T17:48:46.947Z,18.80
2019-05-25T17:51:16.383Z,18.50
2019-05-25T17:53:45.826Z,18.10
2019-05-25T17:56:15.257Z,17.90
2019-05-25T17:58:44.690Z,17.70
2019-05-25T18:01:14.170Z,17.40
2019-05-25T18:03:43.595Z,17.20
2019-05-25T18:06:13.003Z,17.00
2019-05-25T18:08:42.450Z,16.80
2019-05-25T18:11:11.897Z,16.70
2019-05-25T18:13:41.312Z,16.40
2019-05-25T18:16:10.784Z,16.30
2019-05-25T18:18:40.183Z,16.20
2019-05-25T18:21:09.562Z,16.10
2019-05-25T18:23:39.095Z,15.90
2019-05-25T18:26:08.486Z,15.80
2019-05-25T18:28:37.891Z,15.70
2019-05-25T18:31:07.351Z,15.50
2019-05-25T18:33:36.833Z,15.30
2019-05-25T18:36:06.230Z,15.20
2019-05-25T18:38:35.718Z,15.00
2019-05-25T18:41:05.167Z,14.90
2019-05-25T18:43:34.584Z,14.80
2019-05-25T18:46:04.888Z,14.70
2019-05-25T18:48:34.549Z,14.50
2019-05-25T18:51:04.065Z,14.40
2019-05-25T18:53:33.486Z,14.30
2019-05-25T18:56:02.918Z,14.10
2019-05-25T18:58:32.391Z,14.00
2019-05-25T19:01:01.834Z,13.90
2019-05-25T19:03:31.261Z,13.80
2019-05-25T19:06:00.694Z,13.70
2019-05-25T19:08:30.099Z,13.60
2019-05-25T19:10:59.535Z,13.50
2019-05-25T19:13:28.987Z,13.40
2019-05-25T19:15:58.441Z,13.30
2019-05-25T19:18:27.914Z,13.20
2019-05-25T19:20:57.388Z,13.10
2019-05-25T19:23:26.798Z,13.00
2019-05-25T19:25:56.259Z,12.90
2019-05-25T19:28:25.727Z,12.80
2019-05-25T19:30:55.183Z,12.70
2019-05-25T19:33:24.664Z,12.60
2019-05-25T19:35:54.598Z,12.60
2019-05-25T19:38:24.106Z,12.60
2019-05-25T19:40:53.526Z,12.60
2019-05-25T19:43:22.971Z,12.50
2019-05-25T19:45:52.388Z,12.50
2019-05-25T19:48:21.827Z,12.50
2019-05-25T19:50:51.290Z,12.50
2019-05-25T19:53:20.808Z,12.40
2019-05-25T19:55:50.997Z,12.40
2019-05-25T19:58:20.583Z,12.30
2019-05-25T20:00:49.998Z,12.30
2019-05-25T20:03:19.484Z,12.20
2019-05-25T20:05:48.919Z,12.30
2019-05-25T20:08:18.362Z,12.30
2019-05-25T20:10:47.783Z,12.30
2019-05-25T20:13:17.311Z,12.20
2019-05-25T20:15:46.825Z,12.20
2019-05-25T20:18:16.283Z,12.20
2019-05-25T20:20:45.736Z,12.10
2019-05-25T20:23:15.191Z,12.00
2019-05-25T20:25:44.631Z,12.00
2019-05-25T20:28:14.096Z,11.90
2019-05-25T20:30:43.519Z,11.90
2019-05-25T20:33:12.966Z,11.90
2019-05-25T20:35:42.419Z,11.80
2019-05-25T20:38:11.852Z,11.80
2019-05-25T20:40:41.304Z,11.80
2019-05-25T20:43:10.752Z,11.80
2019-05-25T20:45:40.231Z,11.90
2019-05-25T20:48:10.900Z,11.80
2019-05-25T20:50:40.418Z,11.90
2019-05-25T20:53:09.823Z,11.90
2019-05-25T20:55:39.373Z,11.90
2019-05-25T20:58:08.774Z,11.90
2019-05-25T21:00:38.202Z,12.00
2019-05-25T21:03:07.651Z,12.00
2019-05-25T21:05:49.950Z,12.00
2019-05-25T21:08:08.270Z,12.00
2019-05-25T21:10:37.663Z,12.00
2019-05-25T21:13:07.107Z,12.00
2019-05-25T21:15:36.559Z,12.00
2019-05-25T21:18:06.037Z,12.00
2019-05-25T21:20:35.448Z,12.00
2019-05-25T21:23:05.524Z,12.00
2019-05-25T21:25:34.958Z,12.00
2019-05-25T21:28:04.371Z,12.00
2019-05-25T21:30:33.872Z,12.00
2019-05-25T21:33:04.203Z,12.10
2019-05-25T21:35:33.614Z,12.10
2019-05-25T21:38:03.023Z,12.10
2019-05-25T21:40:32.482Z,12.10
2019-05-25T21:43:01.923Z,12.20
2019-05-25T21:45:31.403Z,12.20
2019-05-25T21:48:00.891Z,12.20
2019-05-25T21:50:30.335Z,12.20
2019-05-25T21:52:59.818Z,12.20
2019-05-25T21:55:29.251Z,12.20
2019-05-25T21:57:58.728Z,12.20
2019-05-25T22:00:29.286Z,12.20
2019-05-25T22:02:58.831Z,12.20
2019-05-25T22:05:31.042Z,12.30
2019-05-25T22:08:00.781Z,12.30
2019-05-25T22:10:30.246Z,12.30
2019-05-25T22:12:59.683Z,12.30
2019-05-25T22:15:29.114Z,12.20
2019-05-25T22:17:58.569Z,12.20
2019-05-25T22:20:28.048Z,12.20
2019-05-25T22:22:57.475Z,12.20
2019-05-25T22:25:26.904Z,12.20
2019-05-25T22:27:56.335Z,12.20
2019-05-25T22:30:25.834Z,12.20
2019-05-25T22:32:55.336Z,12.20
2019-05-25T22:35:24.756Z,12.20
2019-05-25T22:37:54.226Z,12.20
2019-05-25T22:40:24.045Z,12.20
2019-05-25T22:42:53.587Z,12.10
2019-05-25T22:45:23.019Z,12.20
2019-05-25T22:47:52.468Z,12.20
2019-05-25T22:50:22.008Z,12.10
2019-05-25T22:52:51.455Z,12.20
2019-05-25T22:55:20.934Z,12.10
2019-05-25T22:57:50.378Z,12.10
2019-05-25T23:00:20.046Z,12.10
2019-05-25T23:02:49.533Z,12.10
2019-05-25T23:05:19.057Z,12.00
2019-05-25T23:07:48.724Z,11.90
2019-05-25T23:10:18.632Z,11.80
2019-05-25T23:12:48.157Z,11.80
2019-05-25T23:15:17.854Z,11.70
2019-05-25T23:17:47.359Z,11.70
2019-05-25T23:20:16.909Z,11.70
2019-05-25T23:22:46.426Z,11.70
2019-05-25T23:25:15.980Z,11.70
2019-05-25T23:27:45.411Z,11.70
2019-05-25T23:30:15.343Z,11.70
2019-05-25T23:32:44.812Z,11.70
2019-05-25T23:35:14.503Z,11.70
2019-05-25T23:37:43.980Z,11.70
2019-05-25T23:40:13.847Z,11.70
2019-05-25T23:42:43.283Z,11.70
2019-05-25T23:45:12.754Z,11.70
2019-05-25T23:47:42.197Z,11.70
2019-05-25T23:50:13.143Z,11.70
2019-05-25T23:52:42.614Z,11.60
2019-05-25T23:55:12.072Z,11.60
2019-05-25T23:57:41.525Z,11.60
